createdAt,value
2019-03-03T00:00:47.267Z,99458.91
2019-03-03T00:03:16.319Z,99442.47
2019-03-03T00:05:45.391Z,99451.30
2019-03-03T00:08:14.515Z,99444.83
2019-03-03T00:10:43.554Z,99451.06
2019-03-03T00:13:12.618Z,99451.14
2019-03-03T00:15:41.629Z,99457.71
2019-03-03T00:18:10.809Z,99450.24
2019-03-03T00:20:39.900Z,99460.27
2019-03-03T00:23:09.035Z,99542.44
2019-03-03T00:25:39.866Z,99459.44
2019-03-03T00:28:09.016Z,99454.98
2019-03-03T00:30:38.244Z,99455.80
2019-03-03T00:33:07.412Z,99443.14
2019-03-03T00:35:36.489Z,99450.51
2019-03-03T00:38:24.615Z,99453.09
2019-03-03T00:41:11.105Z,99439.02
2019-03-03T00:44:02.069Z,99440.66
2019-03-03T00:46:53.263Z,99434.98
2019-03-03T00:49:39.980Z,99425.73
2019-03-03T00:52:28.029Z,99426.16
2019-03-03T00:55:21.511Z,99420.98
2019-03-03T00:57:57.112Z,99426.70
2019-03-03T01:00:46.955Z,99421.40
2019-03-03T01:03:28.118Z,99427.61
2019-03-03T01:06:14.908Z,99426.80
2019-03-03T01:09:17.982Z,99425.92
2019-03-03T01:12:04.938Z,99415.91
2019-03-03T01:14:51.698Z,99225.45
2019-03-03T01:17:29.139Z,99411.66
2019-03-03T01:20:17.081Z,99414.30
2019-03-03T01:23:03.641Z,99407.72
2019-03-03T01:25:32.683Z,99407.70
2019-03-03T01:28:01.807Z,99407.72
2019-03-03T01:30:30.913Z,99399.42
2019-03-03T01:32:59.980Z,99400.68
2019-03-03T01:35:29.087Z,99401.65
2019-03-03T01:37:58.166Z,99397.66
2019-03-03T01:40:27.252Z,99397.21
2019-03-03T01:42:56.405Z,99403.72
2019-03-03T01:45:25.487Z,99408.13
2019-03-03T01:47:54.570Z,99419.92
2019-03-03T01:50:23.656Z,99386.66
2019-03-03T01:52:52.679Z,99395.34
2019-03-03T01:55:21.757Z,99401.09
2019-03-03T01:57:50.857Z,99392.81
2019-03-03T02:00:22.999Z,99388.47
2019-03-03T02:02:52.059Z,99385.91
2019-03-03T02:05:21.201Z,99382.30
2019-03-03T02:07:50.329Z,99374.94
2019-03-03T02:10:21.914Z,99381.56
2019-03-03T02:12:50.977Z,99376.36
2019-03-03T02:15:20.113Z,99365.45
2019-03-03T02:17:49.149Z,99360.63
2019-03-03T02:20:18.190Z,99359.78
2019-03-03T02:22:47.244Z,99351.63
2019-03-03T02:25:16.383Z,99349.38
2019-03-03T02:27:45.407Z,99349.00
2019-03-03T02:30:16.088Z,99332.50
2019-03-03T02:32:45.148Z,99335.63
2019-03-03T02:35:14.210Z,99313.93
2019-03-03T02:37:43.237Z,99309.14
2019-03-03T02:40:13.883Z,99302.28
2019-03-03T02:42:42.954Z,99297.03
2019-03-03T02:45:12.771Z,99300.64
2019-03-03T02:47:41.863Z,99304.11
2019-03-03T02:50:12.110Z,99311.61
2019-03-03T02:52:41.199Z,99293.34
2019-03-03T02:55:11.761Z,99290.83
2019-03-03T02:57:40.808Z,99295.17
2019-03-03T03:00:14.190Z,99296.05
2019-03-03T03:02:50.587Z,99279.87
2019-03-03T03:05:27.028Z,99279.02
2019-03-03T03:08:02.932Z,99280.37
2019-03-03T03:10:49.940Z,99274.56
2019-03-03T03:13:37.980Z,99279.02
2019-03-03T03:16:15.637Z,99265.96
2019-03-03T03:19:12.444Z,99272.09
2019-03-03T03:22:12.454Z,99271.59
2019-03-03T03:24:58.212Z,99265.06
2019-03-03T03:27:31.320Z,99253.36
2019-03-03T03:30:11.143Z,99260.30
2019-03-03T03:33:05.158Z,99247.20
2019-03-03T03:35:40.550Z,99242.80
2019-03-03T03:38:37.897Z,99248.53
2019-03-03T03:41:21.191Z,99255.46
2019-03-03T03:44:08.199Z,99249.83
2019-03-03T03:46:48.431Z,99242.38
2019-03-03T03:49:24.116Z,99247.70
2019-03-03T03:52:20.954Z,99239.83
2019-03-03T03:55:15.237Z,99240.16
2019-03-03T03:57:55.171Z,99262.42
2019-03-03T04:00:46.153Z,99233.21
2019-03-03T04:03:52.244Z,99237.63
2019-03-03T04:06:28.886Z,99231.98
2019-03-03T04:09:12.107Z,99238.70
2019-03-03T04:11:58.012Z,99235.68
2019-03-03T04:14:44.830Z,99229.13
2019-03-03T04:17:41.892Z,99229.11
2019-03-03T04:20:28.490Z,99218.98
2019-03-03T04:23:16.530Z,99240.74
2019-03-03T04:26:07.212Z,99232.31
2019-03-03T04:28:46.500Z,99241.47
2019-03-03T04:31:33.275Z,99235.28
2019-03-03T04:34:09.843Z,99231.07
2019-03-03T04:36:50.414Z,99230.67
2019-03-03T04:39:24.701Z,99231.23
2019-03-03T04:42:12.729Z,99215.48
2019-03-03T04:45:12.559Z,99216.34
2019-03-03T04:47:53.776Z,99213.17
2019-03-03T04:50:47.757Z,99215.81
2019-03-03T04:53:30.570Z,99204.91
2019-03-03T04:56:36.547Z,99053.86
2019-03-03T04:59:24.566Z,99197.88
2019-03-03T05:01:59.916Z,99195.73
2019-03-03T05:04:40.740Z,99198.19
2019-03-03T05:07:17.357Z,99186.31
2019-03-03T05:10:14.557Z,99183.69
2019-03-03T05:13:08.402Z,99180.06
2019-03-03T05:16:05.411Z,99180.48
2019-03-03T05:18:53.246Z,99186.52
2019-03-03T05:21:22.259Z,99174.41
2019-03-03T05:23:51.208Z,99166.98
2019-03-03T05:26:20.297Z,99167.70
2019-03-03T05:28:49.346Z,99171.07
2019-03-03T05:31:18.402Z,99180.92
2019-03-03T05:33:47.475Z,99176.48
2019-03-03T05:36:16.459Z,99175.49
2019-03-03T05:38:45.529Z,99172.85
2019-03-03T05:41:14.624Z,99172.39
2019-03-03T05:43:43.744Z,99163.55
2019-03-03T05:46:12.767Z,99168.85
2019-03-03T05:48:41.843Z,99163.55
2019-03-03T05:51:10.920Z,99162.61
2019-03-03T05:53:39.999Z,99163.97
2019-03-03T05:56:08.985Z,99152.05
2019-03-03T05:58:37.902Z,99145.98
2019-03-03T06:01:06.840Z,99151.94
2019-03-03T06:03:35.856Z,99155.87
2019-03-03T06:06:04.861Z,99144.59
2019-03-03T06:08:33.970Z,99146.21
2019-03-03T06:11:03.033Z,99140.05
2019-03-03T06:13:32.084Z,99137.30
2019-03-03T06:16:01.054Z,99140.34
2019-03-03T06:18:30.092Z,99133.92
2019-03-03T06:20:59.089Z,99139.04
2019-03-03T06:23:28.154Z,99137.70
2019-03-03T06:25:57.132Z,99135.02
2019-03-03T06:28:26.080Z,99134.13
2019-03-03T06:30:55.194Z,99128.95
2019-03-03T06:33:24.218Z,99140.67
2019-03-03T06:35:53.209Z,99132.67
2019-03-03T06:38:22.283Z,99132.19
2019-03-03T06:40:51.315Z,99141.34
2019-03-03T06:43:20.391Z,99137.32
2019-03-03T06:45:49.342Z,99132.92
2019-03-03T06:48:18.357Z,99131.53
2019-03-03T06:50:47.453Z,99136.20
2019-03-03T06:53:16.550Z,99142.00
2019-03-03T06:55:45.521Z,99135.58
2019-03-03T06:58:14.559Z,99135.11
2019-03-03T07:00:43.629Z,99146.91
2019-03-03T07:03:12.639Z,99142.63
2019-03-03T07:05:41.656Z,99135.30
2019-03-03T07:08:10.735Z,99135.38
2019-03-03T07:10:42.218Z,99147.62
2019-03-03T07:13:11.253Z,99143.69
2019-03-03T07:15:40.317Z,99149.09
2019-03-03T07:18:09.425Z,99134.31
2019-03-03T07:20:38.448Z,99130.38
2019-03-03T07:23:07.494Z,99144.80
2019-03-03T07:25:36.567Z,99141.79
2019-03-03T07:28:05.672Z,99139.61
2019-03-03T07:30:34.726Z,99141.33
2019-03-03T07:33:15.423Z,99150.14
2019-03-03T07:35:44.521Z,99134.41
2019-03-03T07:38:14.474Z,99133.72
2019-03-03T07:40:43.524Z,99142.44
2019-03-03T07:43:12.578Z,99138.45
2019-03-03T07:45:41.610Z,99143.64
2019-03-03T07:48:10.629Z,99138.70
2019-03-03T07:50:39.719Z,99136.03
2019-03-03T07:53:08.736Z,99146.87
2019-03-03T07:55:37.784Z,99144.66
2019-03-03T07:58:06.797Z,99152.42
2019-03-03T08:00:35.829Z,99141.96
2019-03-03T08:03:04.942Z,99137.95
2019-03-03T08:05:34.007Z,99149.18
2019-03-03T08:08:03.048Z,99149.31
2019-03-03T08:10:32.076Z,99138.84
2019-03-03T08:13:09.012Z,99141.36
2019-03-03T08:15:31.864Z,99143.47
2019-03-03T08:18:00.889Z,99148.22
2019-03-03T08:20:29.943Z,99145.16
2019-03-03T08:22:58.984Z,99143.06
2019-03-03T08:25:28.078Z,99139.40
2019-03-03T08:27:57.161Z,99141.09
2019-03-03T08:30:26.289Z,99141.12
2019-03-03T08:32:55.395Z,99145.03
2019-03-03T08:35:24.516Z,99147.19
2019-03-03T08:37:53.748Z,99146.64
2019-03-03T08:40:22.906Z,99147.08
2019-03-03T08:43:01.068Z,99140.13
2019-03-03T08:45:55.205Z,99152.78
2019-03-03T08:48:34.990Z,99141.03
2019-03-03T08:51:13.747Z,99140.73
2019-03-03T08:53:50.405Z,99147.78
2019-03-03T08:56:41.497Z,99145.46
2019-03-03T08:59:20.042Z,99147.76
2019-03-03T09:02:06.752Z,99152.84
2019-03-03T09:04:46.911Z,99152.41
2019-03-03T09:07:43.882Z,99152.78
2019-03-03T09:10:31.874Z,99143.95
2019-03-03T09:13:09.547Z,99141.28
2019-03-03T09:15:54.344Z,99147.34
2019-03-03T09:18:51.669Z,99137.28
2019-03-03T09:21:51.858Z,99144.02
2019-03-03T09:24:38.475Z,99145.16
2019-03-03T09:27:16.173Z,99144.51
2019-03-03T09:30:04.113Z,99141.25
2019-03-03T09:32:50.845Z,99140.00
2019-03-03T09:35:44.882Z,99142.63
2019-03-03T09:38:26.822Z,99135.19
2019-03-03T09:41:17.981Z,99135.77
2019-03-03T09:44:00.162Z,99133.14
2019-03-03T09:47:13.521Z,99126.59
2019-03-03T09:49:59.998Z,99137.92
2019-03-03T09:52:41.948Z,99144.05
2019-03-03T09:55:47.865Z,99131.72
2019-03-03T09:58:47.619Z,99135.08
2019-03-03T10:01:33.339Z,99126.78
2019-03-03T10:04:21.311Z,99128.82
2019-03-03T10:07:10.061Z,99123.58
2019-03-03T10:10:07.109Z,99130.95
2019-03-03T10:12:45.629Z,99124.77
2019-03-03T10:15:32.315Z,99132.09
2019-03-03T10:18:18.963Z,99137.23
2019-03-03T10:21:05.885Z,99132.28
2019-03-03T10:23:53.671Z,99124.43
2019-03-03T10:26:37.773Z,99130.61
2019-03-03T10:29:24.643Z,99125.77
2019-03-03T10:32:11.455Z,99116.47
2019-03-03T10:35:14.703Z,99117.84
2019-03-03T10:37:59.356Z,99128.75
2019-03-03T10:40:47.443Z,99123.50
2019-03-03T10:43:32.483Z,99123.38
2019-03-03T10:46:25.147Z,99115.10
2019-03-03T10:49:09.717Z,99116.01
2019-03-03T10:52:00.830Z,99108.14
2019-03-03T10:54:40.077Z,99099.01
2019-03-03T10:57:22.087Z,99113.39
2019-03-03T11:00:08.664Z,99117.23
2019-03-03T11:03:02.734Z,99110.64
2019-03-03T11:05:50.770Z,99107.17
2019-03-03T11:08:43.640Z,99103.11
2019-03-03T11:11:34.652Z,99109.55
2019-03-03T11:14:28.816Z,99106.91
2019-03-03T11:17:31.967Z,99112.06
2019-03-03T11:20:20.044Z,99108.53
2019-03-03T11:23:06.819Z,99110.81
2019-03-03T11:25:53.564Z,99111.59
2019-03-03T11:28:41.843Z,99112.94
2019-03-03T11:31:28.421Z,99115.30
2019-03-03T11:34:25.621Z,99106.78
2019-03-03T11:37:01.526Z,99109.28
2019-03-03T11:39:49.596Z,99101.32
2019-03-03T11:42:23.976Z,99092.13
2019-03-03T11:45:13.671Z,99101.01
2019-03-03T11:48:04.487Z,99093.84
2019-03-03T11:50:50.593Z,99074.62
2019-03-03T11:53:35.893Z,99082.03
2019-03-03T11:56:19.444Z,99078.43
2019-03-03T11:58:55.257Z,99077.05
2019-03-03T12:01:58.717Z,99073.08
2019-03-03T12:04:38.401Z,99077.46
2019-03-03T12:07:25.225Z,99068.67
2019-03-03T12:10:22.509Z,99062.38
2019-03-03T12:13:05.762Z,99065.88
2019-03-03T12:15:57.319Z,99055.24
2019-03-03T12:18:40.443Z,99054.70
2019-03-03T12:21:40.432Z,99053.02
2019-03-03T12:24:31.801Z,99050.80
2019-03-03T12:27:19.160Z,99042.55
2019-03-03T12:30:10.421Z,99039.52
2019-03-03T12:32:50.660Z,99050.90
2019-03-03T12:35:51.312Z,99043.32
2019-03-03T12:38:54.817Z,99036.66
2019-03-03T12:41:52.269Z,99034.36
2019-03-03T12:44:40.702Z,99030.79
2019-03-03T12:47:26.990Z,99023.38
2019-03-03T12:50:08.773Z,99030.31
2019-03-03T12:52:56.886Z,99027.66
2019-03-03T12:55:58.543Z,99010.17
2019-03-03T12:58:50.751Z,99023.24
2019-03-03T13:01:37.538Z,99010.58
2019-03-03T13:04:26.857Z,99004.11
2019-03-03T13:07:14.031Z,99004.66
2019-03-03T13:10:02.062Z,99002.84
2019-03-03T13:13:02.187Z,99004.52
2019-03-03T13:15:53.883Z,98999.05
2019-03-03T13:18:40.501Z,98999.52
2019-03-03T13:21:34.496Z,98990.26
2019-03-03T13:24:21.490Z,98992.45
2019-03-03T13:27:12.661Z,98980.22
2019-03-03T13:29:59.986Z,98973.72
2019-03-03T13:32:42.713Z,98982.34
2019-03-03T13:35:36.718Z,98972.23
2019-03-03T13:38:43.315Z,98971.79
2019-03-03T13:41:21.469Z,98962.92
2019-03-03T13:43:50.561Z,98961.68
2019-03-03T13:46:19.715Z,98953.28
2019-03-03T13:48:48.792Z,98960.58
2019-03-03T13:51:17.896Z,98954.27
2019-03-03T13:53:46.960Z,98956.75
2019-03-03T13:56:16.130Z,98955.17
2019-03-03T13:58:45.149Z,98952.59
2019-03-03T14:01:14.298Z,98945.94
2019-03-03T14:03:43.331Z,98951.08
2019-03-03T14:06:12.512Z,98940.52
2019-03-03T14:08:41.990Z,98935.66
2019-03-03T14:11:11.321Z,98941.21
2019-03-03T14:13:40.424Z,98929.70
2019-03-03T14:16:09.475Z,98922.20
2019-03-03T14:18:38.605Z,98919.06
2019-03-03T14:21:07.746Z,98925.92
2019-03-03T14:23:36.818Z,98922.81
2019-03-03T14:26:06.006Z,98925.84
2019-03-03T14:28:35.033Z,98914.00
2019-03-03T14:31:04.215Z,98920.63
2019-03-03T14:33:33.292Z,98921.02
2019-03-03T14:36:02.346Z,98935.48
2019-03-03T14:38:31.482Z,98919.34
2019-03-03T14:41:00.465Z,98907.03
2019-03-03T14:43:29.562Z,98904.73
2019-03-03T14:45:58.667Z,98891.13
2019-03-03T14:48:27.800Z,98898.06
2019-03-03T14:50:56.907Z,98902.33
2019-03-03T14:53:26.008Z,98903.20
2019-03-03T14:55:55.070Z,98889.26
2019-03-03T14:58:24.175Z,98891.41
2019-03-03T15:00:53.202Z,98881.81
2019-03-03T15:03:22.411Z,98883.13
2019-03-03T15:05:51.508Z,98881.37
2019-03-03T15:08:20.661Z,98871.69
2019-03-03T15:10:50.160Z,98867.70
2019-03-03T15:13:19.390Z,98869.14
2019-03-03T15:15:48.468Z,98861.25
2019-03-03T15:18:17.491Z,98858.49
2019-03-03T15:20:46.596Z,98850.77
2019-03-03T15:23:15.728Z,98863.36
2019-03-03T15:25:44.841Z,98850.25
2019-03-03T15:28:13.954Z,98853.23
2019-03-03T15:30:43.027Z,98849.73
2019-03-03T15:33:12.192Z,98837.97
2019-03-03T15:35:41.358Z,98836.53
2019-03-03T15:38:10.467Z,98843.98
2019-03-03T15:40:39.601Z,98834.42
2019-03-03T15:43:08.742Z,98834.03
2019-03-03T15:45:37.810Z,98820.23
2019-03-03T15:48:06.907Z,98818.00
2019-03-03T15:50:36.024Z,98806.28
2019-03-03T15:53:05.049Z,98807.60
2019-03-03T15:55:34.169Z,98804.01
2019-03-03T15:58:03.244Z,98803.05
2019-03-03T16:00:32.681Z,98803.61
2019-03-03T16:03:01.747Z,98785.47
2019-03-03T16:05:30.847Z,98792.67
2019-03-03T16:07:59.911Z,98791.31
2019-03-03T16:10:30.000Z,98783.55
2019-03-03T16:12:59.116Z,98781.23
2019-03-03T16:15:28.153Z,98804.11
2019-03-03T16:17:57.218Z,98768.95
2019-03-03T16:20:26.638Z,98767.68
2019-03-03T16:22:55.752Z,98771.63
2019-03-03T16:25:24.844Z,98770.22
2019-03-03T16:27:53.877Z,98761.98
2019-03-03T16:30:22.882Z,98753.16
2019-03-03T16:32:52.044Z,98746.23
2019-03-03T16:35:21.114Z,98748.34
2019-03-03T16:37:50.171Z,98746.98
2019-03-03T16:40:20.688Z,98747.95
2019-03-03T16:42:49.846Z,98732.17
2019-03-03T16:45:18.949Z,98735.20
2019-03-03T16:47:48.002Z,98733.44
2019-03-03T16:50:17.799Z,98731.59
2019-03-03T16:52:47.824Z,98717.08
2019-03-03T16:55:16.908Z,98721.42
2019-03-03T16:57:45.977Z,98717.47
2019-03-03T17:00:17.225Z,98713.70
2019-03-03T17:02:46.269Z,98707.92
2019-03-03T17:05:16.150Z,98702.83
2019-03-03T17:07:45.186Z,98698.97
2019-03-03T17:10:14.367Z,98704.28
2019-03-03T17:12:43.434Z,98699.86
2019-03-03T17:15:17.195Z,98707.44
2019-03-03T17:17:46.304Z,98705.95
2019-03-03T17:20:15.391Z,98618.09
2019-03-03T17:22:44.515Z,98694.06
2019-03-03T17:25:16.339Z,98697.01
2019-03-03T17:27:45.420Z,98687.75
2019-03-03T17:30:16.517Z,98690.30
2019-03-03T17:32:45.616Z,98683.94
2019-03-03T17:35:14.704Z,98686.75
2019-03-03T17:37:43.951Z,98679.65
2019-03-03T17:40:15.075Z,98674.39
2019-03-03T17:42:44.187Z,98676.72
2019-03-03T17:45:14.835Z,98676.23
2019-03-03T17:47:44.013Z,98684.52
2019-03-03T17:50:13.546Z,98682.33
2019-03-03T17:52:44.824Z,98687.53
2019-03-03T17:55:14.246Z,98666.94
2019-03-03T17:57:43.278Z,98660.94
2019-03-03T18:00:15.960Z,98663.00
2019-03-03T18:02:45.051Z,98684.16
2019-03-03T18:05:14.208Z,98666.10
2019-03-03T18:07:43.397Z,98654.80
2019-03-03T18:10:12.641Z,98669.26
2019-03-03T18:12:41.724Z,98659.13
2019-03-03T18:15:11.768Z,98649.97
2019-03-03T18:17:40.882Z,98639.80
2019-03-03T18:20:10.957Z,98635.38
2019-03-03T18:22:40.484Z,98638.09
2019-03-03T18:25:12.274Z,98644.53
2019-03-03T18:27:41.438Z,98636.47
2019-03-03T18:30:18.615Z,98625.99
2019-03-03T18:32:47.676Z,98615.08
2019-03-03T18:35:16.890Z,98616.53
2019-03-03T18:37:46.017Z,98612.53
2019-03-03T18:40:17.486Z,98609.38
2019-03-03T18:42:46.988Z,98611.08
2019-03-03T18:45:16.197Z,98606.66
2019-03-03T18:47:45.340Z,98605.48
2019-03-03T18:50:15.788Z,98601.93
2019-03-03T18:52:44.936Z,98593.38
2019-03-03T18:55:14.044Z,98597.88
2019-03-03T18:57:43.183Z,98583.33
2019-03-03T19:00:14.943Z,98588.06
2019-03-03T19:02:44.053Z,98564.87
2019-03-03T19:05:13.164Z,98580.44
2019-03-03T19:07:42.204Z,98572.34
2019-03-03T19:10:13.216Z,98568.01
2019-03-03T19:12:42.255Z,98562.61
2019-03-03T19:15:13.379Z,98548.94
2019-03-03T19:17:42.418Z,98549.27
2019-03-03T19:20:13.312Z,98546.16
2019-03-03T19:22:42.225Z,98546.11
2019-03-03T19:25:12.278Z,98534.62
2019-03-03T19:27:41.291Z,98522.78
2019-03-03T19:30:14.017Z,98521.86
2019-03-03T19:32:43.947Z,98528.97
2019-03-03T19:35:13.242Z,98520.09
2019-03-03T19:37:42.329Z,98520.16
2019-03-03T19:40:13.043Z,98527.52
2019-03-03T19:42:42.130Z,98520.35
2019-03-03T19:45:14.962Z,98514.56
2019-03-03T19:47:44.095Z,98501.41
2019-03-03T19:50:13.374Z,98494.77
2019-03-03T19:52:42.447Z,98500.63
2019-03-03T19:55:11.748Z,98507.59
2019-03-03T19:57:40.850Z,98498.72
2019-03-03T20:00:13.704Z,98502.47
2019-03-03T20:02:42.753Z,98482.27
2019-03-03T20:05:12.899Z,98488.78
2019-03-03T20:07:41.941Z,98493.31
2019-03-03T20:10:11.060Z,98479.91
2019-03-03T20:12:39.994Z,98482.41
2019-03-03T20:15:10.060Z,98474.17
2019-03-03T20:17:39.199Z,98464.58
2019-03-03T20:20:10.948Z,98461.36
2019-03-03T20:22:40.154Z,98454.53
2019-03-03T20:25:09.229Z,98461.61
2019-03-03T20:27:38.453Z,98455.91
2019-03-03T20:30:10.849Z,98455.84
2019-03-03T20:32:39.923Z,98436.71
2019-03-03T20:35:09.476Z,98443.88
2019-03-03T20:37:38.527Z,98441.19
2019-03-03T20:40:10.504Z,98426.10
2019-03-03T20:42:39.549Z,98444.27
2019-03-03T20:45:12.241Z,98446.45
2019-03-03T20:47:41.261Z,98441.83
2019-03-03T20:50:12.723Z,98420.34
2019-03-03T20:52:41.820Z,98421.52
2019-03-03T20:55:12.344Z,98408.76
2019-03-03T20:57:41.390Z,98406.52
2019-03-03T21:00:19.552Z,98415.48
2019-03-03T21:02:48.619Z,98410.72
2019-03-03T21:05:17.700Z,98404.95
2019-03-03T21:07:51.356Z,98398.39
2019-03-03T21:10:19.318Z,98388.17
2019-03-03T21:12:48.435Z,98396.92
2019-03-03T21:15:17.495Z,98392.45
2019-03-03T21:17:46.658Z,98397.90
2019-03-03T21:20:16.532Z,98391.72
2019-03-03T21:22:45.645Z,98404.08
2019-03-03T21:25:14.637Z,98401.79
2019-03-03T21:27:43.743Z,98399.02
2019-03-03T21:30:18.036Z,98389.02
2019-03-03T21:32:47.171Z,98370.86
2019-03-03T21:35:16.257Z,98379.17
2019-03-03T21:37:45.391Z,98359.35
2019-03-03T21:40:16.311Z,98360.48
2019-03-03T21:42:45.518Z,98387.95
2019-03-03T21:45:16.031Z,98359.35
2019-03-03T21:47:45.134Z,98357.31
2019-03-03T21:50:15.965Z,98374.95
2019-03-03T21:52:45.059Z,98362.58
2019-03-03T21:55:14.179Z,98360.61
2019-03-03T21:57:43.271Z,98363.69
2019-03-03T22:00:19.592Z,98351.80
2019-03-03T22:02:48.704Z,98355.23
2019-03-03T22:05:17.763Z,98341.66
2019-03-03T22:07:46.924Z,98327.55
2019-03-03T22:10:16.026Z,98314.39
2019-03-03T22:12:45.085Z,98313.08
2019-03-03T22:15:14.107Z,98332.00
2019-03-03T22:17:43.247Z,98302.73
2019-03-03T22:20:12.300Z,98297.00
2019-03-03T22:22:41.376Z,98292.97
2019-03-03T22:25:10.520Z,98286.89
2019-03-03T22:27:39.625Z,98291.55
2019-03-03T22:30:09.170Z,98271.37
2019-03-03T22:32:38.264Z,98267.28
2019-03-03T22:35:07.391Z,98255.33
2019-03-03T22:37:36.466Z,98257.69
2019-03-03T22:40:06.060Z,98236.31
2019-03-03T22:42:35.124Z,98221.84
2019-03-03T22:45:04.304Z,98209.72
2019-03-03T22:47:33.377Z,98189.22
2019-03-03T22:50:02.414Z,98182.80
2019-03-03T22:52:31.625Z,98191.30
2019-03-03T22:55:00.688Z,98152.39
2019-03-03T22:57:29.734Z,98178.92
2019-03-03T22:59:59.718Z,98161.38
2019-03-03T23:02:28.770Z,98137.21
2019-03-03T23:05:10.519Z,98132.43
2019-03-03T23:08:03.091Z,98141.00
2019-03-03T23:11:06.872Z,98145.72
2019-03-03T23:13:46.938Z,98146.99
2019-03-03T23:16:30.397Z,98141.89
2019-03-03T23:19:45.599Z,98133.67
2019-03-03T23:22:46.893Z,98117.03
2019-03-03T23:25:43.399Z,98125.94
2019-03-03T23:28:12.425Z,98153.30
2019-03-03T23:30:41.455Z,98146.38
2019-03-03T23:33:10.526Z,98158.60
2019-03-03T23:35:39.979Z,98159.11
2019-03-03T23:38:09.049Z,98156.55
2019-03-03T23:40:38.094Z,98143.47
2019-03-03T23:43:07.104Z,98158.03
2019-03-03T23:45:36.144Z,98140.00
2019-03-03T23:48:05.155Z,98143.78
2019-03-03T23:50:34.226Z,98143.02
2019-03-03T23:53:03.270Z,98153.92
2019-03-03T23:55:32.175Z,98162.36
2019-03-03T23:58:01.202Z,98154.70
